Jomi — C6VK4 — position and weather

sailwx.info

Track history (hours):
 
Tides and Currents Weather Stations Pressure Air Temp Water Temp Dewpoint Dewpoint Depression Visibility Wind Speed Wind Dir Waves Ship Positions

Jomi

Last reported at 2015-Jul-03 02:32 UTC. Time now 2015-Jul-03 10:36 UTC.
Position N 58°38' E 017°08'.

Length 88 m; draft 4.3 m.

Type: Cargo ship. MMSI: 309701000.

Date/timePositionNaut miles runAvg speedWind from/ knotsBaromVisibWave heightAir tempDewpointWater temp
2015-Jul-03 02:32N 58°38' E 017°08'1010.0
2015-Jul-03 01:33N 58°37' E 016°50'1010.2
2015-Jul-03 00:33N 58°39' E 016°30'  
2015-Jun-29 16:30N 58°38' E 016°17'9 9.6
2015-Jun-29 15:33N 58°38' E 016°35'141 9.9
2015-Jun-29 01:24N 59°10' E 021°00'1910.2
2015-Jun-28 23:32N 59°16' E 021°36'1110.1
2015-Jun-28 22:29N 59°19' E 021°56'1010.4
2015-Jun-28 21:33N 59°19' E 022°15'1010.3
2015-Jun-28 20:33N 59°19' E 022°35'1010.3
2015-Jun-28 19:33N 59°21' E 022°55'1010.5
2015-Jun-28 18:33N 59°23' E 023°15'1010.2
2015-Jun-28 17:33N 59°25' E 023°34'1110.1
2015-Jun-28 16:27N 59°28' E 023°56'910.0
2015-Jun-28 15:33N 59°30' E 024°13'10 9.7
2015-Jun-28 14:33N 59°30' E 024°32'61 4.0
2015-Jun-27 23:07N 59°59' E 026°19'6 9.9
2015-Jun-27 22:33N 60°01' E 026°30'10 9.6
2015-Jun-27 21:33N 60°00' E 026°49'1 0.0
2015-Jun-25 23:24N 59°59' E 026°50'910.8
2015-Jun-25 22:33N 59°59' E 026°32'6510.5
2015-Jun-25 16:24N 59°43' E 024°27'2110.4
2015-Jun-25 14:24N 59°37' E 023°48'910.4
2015-Jun-25 13:31N 59°33' E 023°31'33610.4
2015-Jun-24 05:08N 55°45' E 015°48'1010.7
2015-Jun-24 04:13N 55°40' E 015°34'711.1
2015-Jun-24 03:33N 55°37' E 015°22'1111.0
2015-Jun-24 02:34N 55°31' E 015°05'1110.7
2015-Jun-24 01:33N 55°26' E 014°49'1110.8
2015-Jun-24 00:33N 55°19' E 014°34'1110.8
2015-Jun-23 23:33N 55°11' E 014°22'  
Track history (hours):
 
Tides and Currents Weather Stations Pressure Air Temp Water Temp Dewpoint Dewpoint Depression Visibility Wind Speed Wind Dir Waves Ship Positions

Jomi

Last reported at 2015-Jul-03 02:32 UTC. Time now 2015-Jul-03 10:36 UTC.
Position N 58°38' E 017°08'.

Length 88 m; draft 4.3 m.

Type: Cargo ship. MMSI: 309701000.

Date/timePositionNaut miles runAvg speedWind from/ knotsBaromVisibWave heightAir tempDewpointWater temp
2015-Jul-03 02:32N 58°38' E 017°08'1010.0
2015-Jul-03 01:33N 58°37' E 016°50'1010.2
2015-Jul-03 00:33N 58°39' E 016°30'  
2015-Jun-29 16:30N 58°38' E 016°17'9 9.6
2015-Jun-29 15:33N 58°38' E 016°35'141 9.9
2015-Jun-29 01:24N 59°10' E 021°00'1910.2
2015-Jun-28 23:32N 59°16' E 021°36'1110.1
2015-Jun-28 22:29N 59°19' E 021°56'1010.4
2015-Jun-28 21:33N 59°19' E 022°15'1010.3
2015-Jun-28 20:33N 59°19' E 022°35'1010.3
2015-Jun-28 19:33N 59°21' E 022°55'1010.5
2015-Jun-28 18:33N 59°23' E 023°15'1010.2
2015-Jun-28 17:33N 59°25' E 023°34'1110.1
2015-Jun-28 16:27N 59°28' E 023°56'910.0
2015-Jun-28 15:33N 59°30' E 024°13'10 9.7
2015-Jun-28 14:33N 59°30' E 024°32'61 4.0
2015-Jun-27 23:07N 59°59' E 026°19'6 9.9
2015-Jun-27 22:33N 60°01' E 026°30'10 9.6
2015-Jun-27 21:33N 60°00' E 026°49'1 0.0
2015-Jun-25 23:24N 59°59' E 026°50'910.8
2015-Jun-25 22:33N 59°59' E 026°32'6510.5
2015-Jun-25 16:24N 59°43' E 024°27'2110.4
2015-Jun-25 14:24N 59°37' E 023°48'910.4
2015-Jun-25 13:31N 59°33' E 023°31'33610.4
2015-Jun-24 05:08N 55°45' E 015°48'1010.7
2015-Jun-24 04:13N 55°40' E 015°34'711.1
2015-Jun-24 03:33N 55°37' E 015°22'1111.0
2015-Jun-24 02:34N 55°31' E 015°05'1110.7
2015-Jun-24 01:33N 55°26' E 014°49'1110.8
2015-Jun-24 00:33N 55°19' E 014°34'1110.8
2015-Jun-23 23:33N 55°11' E 014°22'  

Dump ship's entire track history